sensor_id;sensor_type;location;lat;lon;timestamp;temperature;humidity
6164;DHT22;3114;48.362;10.994;2022-08-03T00:01:04;22.20;99.90
6164;DHT22;3114;48.362;10.994;2022-08-03T00:03:32;22.20;99.90
6164;DHT22;3114;48.362;10.994;2022-08-03T00:06:03;22.10;99.90
6164;DHT22;3114;48.362;10.994;2022-08-03T00:08:29;22.00;99.90
6164;DHT22;3114;48.362;10.994;2022-08-03T00:10:56;22.00;99.90
6164;DHT22;3114;48.362;10.994;2022-08-03T00:13:24;21.90;99.90
6164;DHT22;3114;48.362;10.994;2022-08-03T00:15:51;22.00;99.90
6164;DHT22;3114;48.362;10.994;2022-08-03T00:18:18;22.00;99.90
6164;DHT22;3114;48.362;10.994;2022-08-03T00:20:44;22.00;99.90
6164;DHT22;3114;48.362;10.994;2022-08-03T00:23:13;22.10;99.90
6164;DHT22;3114;48.362;10.994;2022-08-03T00:25:40;22.00;99.90
6164;DHT22;3114;48.362;10.994;2022-08-03T00:28:07;22.00;99.90
6164;DHT22;3114;48.362;10.994;2022-08-03T00:30:34;22.00;99.90
6164;DHT22;3114;48.362;10.994;2022-08-03T00:33:01;22.00;99.90
6164;DHT22;3114;48.362;10.994;2022-08-03T00:35:29;21.80;99.90
6164;DHT22;3114;48.362;10.994;2022-08-03T00:37:56;21.60;99.90
6164;DHT22;3114;48.362;10.994;2022-08-03T00:40:25;21.50;99.90
6164;DHT22;3114;48.362;10.994;2022-08-03T00:42:55;21.60;99.90
6164;DHT22;3114;48.362;10.994;2022-08-03T00:45:23;21.60;99.90
6164;DHT22;3114;48.362;10.994;2022-08-03T00:47:50;21.70;99.90
6164;DHT22;3114;48.362;10.994;2022-08-03T00:50:18;21.80;99.90
6164;DHT22;3114;48.362;10.994;2022-08-03T00:52:47;21.70;99.90
6164;DHT22;3114;48.362;10.994;2022-08-03T00:55:15;21.60;99.90
6164;DHT22;3114;48.362;10.994;2022-08-03T00:57:45;21.70;99.90
6164;DHT22;3114;48.362;10.994;2022-08-03T01:00:15;21.70;99.90
6164;DHT22;3114;48.362;10.994;2022-08-03T01:02:43;21.70;99.90
6164;DHT22;3114;48.362;10.994;2022-08-03T01:05:10;21.70;99.90
6164;DHT22;3114;48.362;10.994;2022-08-03T01:07:45;21.70;99.90
6164;DHT22;3114;48.362;10.994;2022-08-03T01:10:23;21.60;99.90
6164;DHT22;3114;48.362;10.994;2022-08-03T01:13:00;21.60;99.90
6164;DHT22;3114;48.362;10.994;2022-08-03T01:15:32;21.70;99.90
6164;DHT22;3114;48.362;10.994;2022-08-03T01:18:06;21.70;99.90
6164;DHT22;3114;48.362;10.994;2022-08-03T01:20:38;21.70;99.90
6164;DHT22;3114;48.362;10.994;2022-08-03T01:23:23;21.70;99.90
6164;DHT22;3114;48.362;10.994;2022-08-03T01:26:08;21.50;99.90
6164;DHT22;3114;48.362;10.994;2022-08-03T01:28:53;21.40;99.90
6164;DHT22;3114;48.362;10.994;2022-08-03T01:31:27;21.30;99.90
6164;DHT22;3114;48.362;10.994;2022-08-03T01:33:58;21.20;99.90
6164;DHT22;3114;48.362;10.994;2022-08-03T01:36:31;21.20;99.90
6164;DHT22;3114;48.362;10.994;2022-08-03T01:39:00;21.20;99.90
6164;DHT22;3114;48.362;10.994;2022-08-03T01:41:30;21.30;99.90
6164;DHT22;3114;48.362;10.994;2022-08-03T01:44:00;21.40;99.90
6164;DHT22;3114;48.362;10.994;2022-08-03T01:46:30;21.20;99.90
6164;DHT22;3114;48.362;10.994;2022-08-03T01:48:58;21.30;99.90
6164;DHT22;3114;48.362;10.994;2022-08-03T01:51:27;21.30;99.90
6164;DHT22;3114;48.362;10.994;2022-08-03T01:53:55;21.20;99.90
6164;DHT22;3114;48.362;10.994;2022-08-03T01:56:23;21.20;99.90
6164;DHT22;3114;48.362;10.994;2022-08-03T01:58:52;21.30;99.90
6164;DHT22;3114;48.362;10.994;2022-08-03T02:01:20;21.30;99.90
6164;DHT22;3114;48.362;10.994;2022-08-03T02:03:50;21.20;99.90
6164;DHT22;3114;48.362;10.994;2022-08-03T02:06:19;21.20;99.90
6164;DHT22;3114;48.362;10.994;2022-08-03T02:08:48;21.00;99.90
6164;DHT22;3114;48.362;10.994;2022-08-03T02:11:15;20.90;99.90
6164;DHT22;3114;48.362;10.994;2022-08-03T02:13:43;21.00;99.90
6164;DHT22;3114;48.362;10.994;2022-08-03T02:16:11;21.00;99.90
6164;DHT22;3114;48.362;10.994;2022-08-03T02:18:39;21.00;99.90
6164;DHT22;3114;48.362;10.994;2022-08-03T02:21:09;21.00;99.90
6164;DHT22;3114;48.362;10.994;2022-08-03T02:23:37;21.10;99.90
6164;DHT22;3114;48.362;10.994;2022-08-03T02:26:08;21.10;99.90
6164;DHT22;3114;48.362;10.994;2022-08-03T02:28:37;21.20;99.90
6164;DHT22;3114;48.362;10.994;2022-08-03T02:31:11;21.20;99.90
6164;DHT22;3114;48.362;10.994;2022-08-03T02:33:43;21.20;99.90
6164;DHT22;3114;48.362;10.994;2022-08-03T02:36:14;21.10;99.90
6164;DHT22;3114;48.362;10.994;2022-08-03T02:38:43;20.90;99.90
6164;DHT22;3114;48.362;10.994;2022-08-03T02:41:14;21.00;99.90
6164;DHT22;3114;48.362;10.994;2022-08-03T02:43:44;20.90;99.90
6164;DHT22;3114;48.362;10.994;2022-08-03T02:46:16;20.90;99.90
6164;DHT22;3114;48.362;10.994;2022-08-03T02:48:45;20.70;99.90
6164;DHT22;3114;48.362;10.994;2022-08-03T02:51:15;20.70;99.90
6164;DHT22;3114;48.362;10.994;2022-08-03T02:53:45;20.70;99.90
6164;DHT22;3114;48.362;10.994;2022-08-03T02:56:13;20.70;99.90
6164;DHT22;3114;48.362;10.994;2022-08-03T02:58:42;20.80;99.90
6164;DHT22;3114;48.362;10.994;2022-08-03T03:01:09;20.80;99.90
6164;DHT22;3114;48.362;10.994;2022-08-03T03:03:39;20.80;99.90
6164;DHT22;3114;48.362;10.994;2022-08-03T03:06:06;20.80;99.90
6164;DHT22;3114;48.362;10.994;2022-08-03T03:08:36;20.70;99.90
6164;DHT22;3114;48.362;10.994;2022-08-03T03:11:03;20.60;99.90
6164;DHT22;3114;48.362;10.994;2022-08-03T03:13:31;20.60;99.90
6164;DHT22;3114;48.362;10.994;2022-08-03T03:16:00;20.50;99.90
6164;DHT22;3114;48.362;10.994;2022-08-03T03:18:28;20.50;99.90
6164;DHT22;3114;48.362;10.994;2022-08-03T03:20:57;20.60;99.90
6164;DHT22;3114;48.362;10.994;2022-08-03T03:23:26;20.70;99.90
6164;DHT22;3114;48.362;10.994;2022-08-03T03:25:55;20.70;99.90
6164;DHT22;3114;48.362;10.994;2022-08-03T03:28:23;20.70;99.90
6164;DHT22;3114;48.362;10.994;2022-08-03T03:30:50;20.80;99.90
6164;DHT22;3114;48.362;10.994;2022-08-03T03:33:18;20.80;99.90
6164;DHT22;3114;48.362;10.994;2022-08-03T03:35:45;20.80;99.90
6164;DHT22;3114;48.362;10.994;2022-08-03T03:38:12;20.60;99.90
6164;DHT22;3114;48.362;10.994;2022-08-03T03:40:39;20.50;99.90
6164;DHT22;3114;48.362;10.994;2022-08-03T03:43:09;20.40;99.90
6164;DHT22;3114;48.362;10.994;2022-08-03T03:45:36;20.50;99.90
6164;DHT22;3114;48.362;10.994;2022-08-03T03:48:04;20.50;99.90
6164;DHT22;3114;48.362;10.994;2022-08-03T03:50:32;20.50;99.90
6164;DHT22;3114;48.362;10.994;2022-08-03T03:53:00;20.40;99.90
6164;DHT22;3114;48.362;10.994;2022-08-03T03:55:27;20.40;99.90
6164;DHT22;3114;48.362;10.994;2022-08-03T03:57:55;20.30;99.90
6164;DHT22;3114;48.362;10.994;2022-08-03T04:00:23;20.20;99.90
6164;DHT22;3114;48.362;10.994;2022-08-03T04:02:50;20.00;99.90
6164;DHT22;3114;48.362;10.994;2022-08-03T04:05:16;20.10;99.90
6164;DHT22;3114;48.362;10.994;2022-08-03T04:08:07;20.20;99.90
6164;DHT22;3114;48.362;10.994;2022-08-03T04:10:59;20.30;99.90
6164;DHT22;3114;48.362;10.994;2022-08-03T04:13:32;20.30;99.90
6164;DHT22;3114;48.362;10.994;2022-08-03T04:16:01;20.40;99.90
6164;DHT22;3114;48.362;10.994;2022-08-03T04:18:31;20.40;99.90
6164;DHT22;3114;48.362;10.994;2022-08-03T04:21:02;20.40;99.90
6164;DHT22;3114;48.362;10.994;2022-08-03T04:23:30;20.20;99.90
6164;DHT22;3114;48.362;10.994;2022-08-03T04:26:00;20.20;99.90
6164;DHT22;3114;48.362;10.994;2022-08-03T04:28:28;20.20;99.90
6164;DHT22;3114;48.362;10.994;2022-08-03T04:30:57;20.20;99.90
6164;DHT22;3114;48.362;10.994;2022-08-03T04:33:26;20.30;99.90
6164;DHT22;3114;48.362;10.994;2022-08-03T04:35:57;20.20;99.90
6164;DHT22;3114;48.362;10.994;2022-08-03T04:38:25;20.10;99.90
6164;DHT22;3114;48.362;10.994;2022-08-03T04:40:53;20.10;99.90
6164;DHT22;3114;48.362;10.994;2022-08-03T04:43:21;20.10;99.90
6164;DHT22;3114;48.362;10.994;2022-08-03T04:45:50;20.20;99.90
6164;DHT22;3114;48.362;10.994;2022-08-03T04:48:18;20.30;99.90
6164;DHT22;3114;48.362;10.994;2022-08-03T04:50:47;20.30;99.90
6164;DHT22;3114;48.362;10.994;2022-08-03T04:53:15;20.30;99.90
6164;DHT22;3114;48.362;10.994;2022-08-03T04:55:42;20.30;99.90
6164;DHT22;3114;48.362;10.994;2022-08-03T04:58:09;20.40;99.90
6164;DHT22;3114;48.362;10.994;2022-08-03T05:00:37;20.30;99.90
6164;DHT22;3114;48.362;10.994;2022-08-03T05:03:04;20.30;99.90
6164;DHT22;3114;48.362;10.994;2022-08-03T05:05:31;20.40;99.90
6164;DHT22;3114;48.362;10.994;2022-08-03T05:07:59;20.50;99.90
6164;DHT22;3114;48.362;10.994;2022-08-03T05:10:26;20.60;99.90
6164;DHT22;3114;48.362;10.994;2022-08-03T05:12:53;20.40;99.90
6164;DHT22;3114;48.362;10.994;2022-08-03T05:15:20;20.40;99.90
6164;DHT22;3114;48.362;10.994;2022-08-03T05:17:47;20.50;99.90
6164;DHT22;3114;48.362;10.994;2022-08-03T05:20:14;20.60;99.90
6164;DHT22;3114;48.362;10.994;2022-08-03T05:22:41;20.70;99.90
6164;DHT22;3114;48.362;10.994;2022-08-03T05:25:09;20.60;99.90
6164;DHT22;3114;48.362;10.994;2022-08-03T05:27:36;20.60;99.90
6164;DHT22;3114;48.362;10.994;2022-08-03T05:30:03;20.80;99.90
6164;DHT22;3114;48.362;10.994;2022-08-03T05:32:30;20.90;99.90
6164;DHT22;3114;48.362;10.994;2022-08-03T05:34:57;21.10;99.90
6164;DHT22;3114;48.362;10.994;2022-08-03T05:37:24;21.00;99.90
6164;DHT22;3114;48.362;10.994;2022-08-03T05:39:51;20.90;99.90
6164;DHT22;3114;48.362;10.994;2022-08-03T05:42:19;20.80;99.90
6164;DHT22;3114;48.362;10.994;2022-08-03T05:44:46;20.90;99.90
6164;DHT22;3114;48.362;10.994;2022-08-03T05:47:13;21.00;99.90
6164;DHT22;3114;48.362;10.994;2022-08-03T05:49:40;21.10;99.90
6164;DHT22;3114;48.362;10.994;2022-08-03T05:52:07;21.20;99.90
6164;DHT22;3114;48.362;10.994;2022-08-03T05:54:34;21.20;99.90
6164;DHT22;3114;48.362;10.994;2022-08-03T05:57:01;21.10;99.90
6164;DHT22;3114;48.362;10.994;2022-08-03T05:59:29;21.10;99.90
6164;DHT22;3114;48.362;10.994;2022-08-03T06:01:56;21.10;99.90
6164;DHT22;3114;48.362;10.994;2022-08-03T06:04:22;21.20;99.90
6164;DHT22;3114;48.362;10.994;2022-08-03T06:06:49;21.30;99.90
6164;DHT22;3114;48.362;10.994;2022-08-03T06:09:16;21.40;99.90
6164;DHT22;3114;48.362;10.994;2022-08-03T06:11:43;21.50;99.90
6164;DHT22;3114;48.362;10.994;2022-08-03T06:14:10;21.60;99.90
6164;DHT22;3114;48.362;10.994;2022-08-03T06:16:38;21.60;99.90
6164;DHT22;3114;48.362;10.994;2022-08-03T06:19:05;21.60;99.90
6164;DHT22;3114;48.362;10.994;2022-08-03T06:21:31;21.50;99.90
6164;DHT22;3114;48.362;10.994;2022-08-03T06:23:58;21.60;99.90
6164;DHT22;3114;48.362;10.994;2022-08-03T06:26:26;21.50;99.90
6164;DHT22;3114;48.362;10.994;2022-08-03T06:28:53;21.70;99.90
6164;DHT22;3114;48.362;10.994;2022-08-03T06:31:22;21.70;99.90
6164;DHT22;3114;48.362;10.994;2022-08-03T06:33:51;21.70;99.90
6164;DHT22;3114;48.362;10.994;2022-08-03T06:36:18;21.70;99.90
6164;DHT22;3114;48.362;10.994;2022-08-03T06:38:45;21.80;99.90
6164;DHT22;3114;48.362;10.994;2022-08-03T06:41:12;21.80;99.90
6164;DHT22;3114;48.362;10.994;2022-08-03T06:43:39;21.90;99.90
6164;DHT22;3114;48.362;10.994;2022-08-03T06:46:06;21.90;99.90
6164;DHT22;3114;48.362;10.994;2022-08-03T06:48:35;21.90;99.90
6164;DHT22;3114;48.362;10.994;2022-08-03T06:51:03;22.00;99.90
6164;DHT22;3114;48.362;10.994;2022-08-03T06:53:30;22.00;99.90
6164;DHT22;3114;48.362;10.994;2022-08-03T06:55:57;22.00;99.90
6164;DHT22;3114;48.362;10.994;2022-08-03T06:58:24;22.00;99.90
6164;DHT22;3114;48.362;10.994;2022-08-03T07:00:51;22.00;99.90
6164;DHT22;3114;48.362;10.994;2022-08-03T07:03:18;22.10;99.90
6164;DHT22;3114;48.362;10.994;2022-08-03T07:05:45;22.10;99.90
6164;DHT22;3114;48.362;10.994;2022-08-03T07:08:13;22.10;99.90
6164;DHT22;3114;48.362;10.994;2022-08-03T07:10:40;22.20;99.90
6164;DHT22;3114;48.362;10.994;2022-08-03T07:13:07;22.20;99.90
6164;DHT22;3114;48.362;10.994;2022-08-03T07:15:34;22.30;99.90
6164;DHT22;3114;48.362;10.994;2022-08-03T07:18:01;22.40;99.90
6164;DHT22;3114;48.362;10.994;2022-08-03T07:20:28;22.50;99.90
6164;DHT22;3114;48.362;10.994;2022-08-03T07:22:55;22.50;99.90
6164;DHT22;3114;48.362;10.994;2022-08-03T07:25:24;22.50;99.90
6164;DHT22;3114;48.362;10.994;2022-08-03T07:27:51;22.60;99.90
6164;DHT22;3114;48.362;10.994;2022-08-03T07:30:18;22.60;99.90
6164;DHT22;3114;48.362;10.994;2022-08-03T07:32:45;22.70;99.90
6164;DHT22;3114;48.362;10.994;2022-08-03T07:35:12;22.70;99.90
6164;DHT22;3114;48.362;10.994;2022-08-03T07:37:39;22.70;99.90
6164;DHT22;3114;48.362;10.994;2022-08-03T07:40:06;22.80;99.90
6164;DHT22;3114;48.362;10.994;2022-08-03T07:42:35;22.80;99.90
6164;DHT22;3114;48.362;10.994;2022-08-03T07:45:02;22.80;99.90
6164;DHT22;3114;48.362;10.994;2022-08-03T07:47:29;22.90;99.90
6164;DHT22;3114;48.362;10.994;2022-08-03T07:49:57;23.00;99.90
6164;DHT22;3114;48.362;10.994;2022-08-03T07:52:24;23.10;99.90
6164;DHT22;3114;48.362;10.994;2022-08-03T07:55:08;23.10;99.90
6164;DHT22;3114;48.362;10.994;2022-08-03T07:57:37;23.20;99.90
6164;DHT22;3114;48.362;10.994;2022-08-03T08:00:06;23.20;99.90
6164;DHT22;3114;48.362;10.994;2022-08-03T08:02:34;23.20;99.90
6164;DHT22;3114;48.362;10.994;2022-08-03T08:05:01;23.20;99.90
6164;DHT22;3114;48.362;10.994;2022-08-03T08:07:28;23.20;99.90
6164;DHT22;3114;48.362;10.994;2022-08-03T08:09:55;23.30;99.90
6164;DHT22;3114;48.362;10.994;2022-08-03T08:12:21;23.40;99.90
6164;DHT22;3114;48.362;10.994;2022-08-03T08:14:50;23.50;99.90
6164;DHT22;3114;48.362;10.994;2022-08-03T08:17:16;23.60;99.90
6164;DHT22;3114;48.362;10.994;2022-08-03T08:19:44;23.60;99.90
6164;DHT22;3114;48.362;10.994;2022-08-03T08:22:11;23.70;99.90
6164;DHT22;3114;48.362;10.994;2022-08-03T08:24:38;23.80;99.90
6164;DHT22;3114;48.362;10.994;2022-08-03T08:27:05;23.80;99.90
6164;DHT22;3114;48.362;10.994;2022-08-03T08:29:33;23.90;99.90
6164;DHT22;3114;48.362;10.994;2022-08-03T08:32:01;23.90;99.90
6164;DHT22;3114;48.362;10.994;2022-08-03T08:36:55;24.00;99.90
6164;DHT22;3114;48.362;10.994;2022-08-03T08:39:23;24.00;99.90
6164;DHT22;3114;48.362;10.994;2022-08-03T08:41:50;24.00;99.90
6164;DHT22;3114;48.362;10.994;2022-08-03T08:44:17;24.10;99.90
6164;DHT22;3114;48.362;10.994;2022-08-03T08:46:44;24.10;99.90
6164;DHT22;3114;48.362;10.994;2022-08-03T08:49:16;24.10;99.90
6164;DHT22;3114;48.362;10.994;2022-08-03T08:51:45;24.10;99.90
6164;DHT22;3114;48.362;10.994;2022-08-03T08:54:14;24.20;99.90
6164;DHT22;3114;48.362;10.994;2022-08-03T08:56:41;24.20;99.90
6164;DHT22;3114;48.362;10.994;2022-08-03T08:59:09;24.20;99.90
6164;DHT22;3114;48.362;10.994;2022-08-03T09:01:36;24.30;99.90
6164;DHT22;3114;48.362;10.994;2022-08-03T09:04:05;24.40;99.90
6164;DHT22;3114;48.362;10.994;2022-08-03T09:06:33;24.40;99.90
6164;DHT22;3114;48.362;10.994;2022-08-03T09:09:00;24.40;99.90
6164;DHT22;3114;48.362;10.994;2022-08-03T09:11:27;24.40;99.90
6164;DHT22;3114;48.362;10.994;2022-08-03T09:13:54;24.40;99.90
6164;DHT22;3114;48.362;10.994;2022-08-03T09:16:21;24.40;99.90
6164;DHT22;3114;48.362;10.994;2022-08-03T09:18:50;24.50;99.90
6164;DHT22;3114;48.362;10.994;2022-08-03T09:21:20;24.60;99.90
6164;DHT22;3114;48.362;10.994;2022-08-03T09:23:50;24.60;99.90
6164;DHT22;3114;48.362;10.994;2022-08-03T09:26:21;24.60;99.90
6164;DHT22;3114;48.362;10.994;2022-08-03T09:29:00;24.60;99.90
6164;DHT22;3114;48.362;10.994;2022-08-03T09:31:32;24.60;99.90
6164;DHT22;3114;48.362;10.994;2022-08-03T09:34:03;24.60;99.90
6164;DHT22;3114;48.362;10.994;2022-08-03T09:36:39;24.60;99.90
6164;DHT22;3114;48.362;10.994;2022-08-03T09:39:09;24.70;99.90
6164;DHT22;3114;48.362;10.994;2022-08-03T09:41:38;24.70;99.90
6164;DHT22;3114;48.362;10.994;2022-08-03T09:44:05;24.80;99.90
6164;DHT22;3114;48.362;10.994;2022-08-03T09:46:47;24.80;99.90
6164;DHT22;3114;48.362;10.994;2022-08-03T09:49:14;24.80;99.90
6164;DHT22;3114;48.362;10.994;2022-08-03T09:51:41;24.90;99.90
6164;DHT22;3114;48.362;10.994;2022-08-03T09:54:09;25.00;99.90
6164;DHT22;3114;48.362;10.994;2022-08-03T09:56:37;25.00;99.90
6164;DHT22;3114;48.362;10.994;2022-08-03T09:59:05;24.90;99.90
6164;DHT22;3114;48.362;10.994;2022-08-03T10:01:32;24.90;99.90
6164;DHT22;3114;48.362;10.994;2022-08-03T10:03:59;25.00;99.90
6164;DHT22;3114;48.362;10.994;2022-08-03T10:06:26;25.00;99.90
6164;DHT22;3114;48.362;10.994;2022-08-03T10:09:05;25.10;99.90
6164;DHT22;3114;48.362;10.994;2022-08-03T10:11:34;25.20;99.90
6164;DHT22;3114;48.362;10.994;2022-08-03T10:14:03;25.20;99.90
6164;DHT22;3114;48.362;10.994;2022-08-03T10:16:33;25.20;99.90
6164;DHT22;3114;48.362;10.994;2022-08-03T10:19:01;25.10;99.90
6164;DHT22;3114;48.362;10.994;2022-08-03T10:21:32;25.20;99.90
6164;DHT22;3114;48.362;10.994;2022-08-03T10:24:04;25.20;99.90
6164;DHT22;3114;48.362;10.994;2022-08-03T10:26:34;25.20;99.90
6164;DHT22;3114;48.362;10.994;2022-08-03T10:29:03;25.20;99.90
6164;DHT22;3114;48.362;10.994;2022-08-03T10:31:35;25.30;99.90
6164;DHT22;3114;48.362;10.994;2022-08-03T10:34:10;25.20;99.90
6164;DHT22;3114;48.362;10.994;2022-08-03T10:36:41;25.30;99.90
6164;DHT22;3114;48.362;10.994;2022-08-03T10:39:09;25.30;99.90
6164;DHT22;3114;48.362;10.994;2022-08-03T10:41:40;25.40;99.90
6164;DHT22;3114;48.362;10.994;2022-08-03T10:44:12;25.50;99.90
6164;DHT22;3114;48.362;10.994;2022-08-03T10:46:41;25.40;99.90
6164;DHT22;3114;48.362;10.994;2022-08-03T10:49:12;25.50;99.90
6164;DHT22;3114;48.362;10.994;2022-08-03T10:51:40;25.50;99.90
6164;DHT22;3114;48.362;10.994;2022-08-03T10:54:07;25.40;99.90
6164;DHT22;3114;48.362;10.994;2022-08-03T10:56:55;25.40;99.90
6164;DHT22;3114;48.362;10.994;2022-08-03T10:59:58;25.60;99.90
6164;DHT22;3114;48.362;10.994;2022-08-03T11:03:05;25.60;99.90
6164;DHT22;3114;48.362;10.994;2022-08-03T11:05:35;25.70;99.90
6164;DHT22;3114;48.362;10.994;2022-08-03T11:08:25;25.80;99.90
6164;DHT22;3114;48.362;10.994;2022-08-03T11:10:55;25.70;99.90
6164;DHT22;3114;48.362;10.994;2022-08-03T11:13:24;25.80;99.90
6164;DHT22;3114;48.362;10.994;2022-08-03T11:15:54;25.80;99.90
6164;DHT22;3114;48.362;10.994;2022-08-03T11:18:22;25.90;99.90
6164;DHT22;3114;48.362;10.994;2022-08-03T11:20:50;26.00;99.90
6164;DHT22;3114;48.362;10.994;2022-08-03T11:23:19;26.00;99.90
6164;DHT22;3114;48.362;10.994;2022-08-03T11:26:14;26.10;99.90
6164;DHT22;3114;48.362;10.994;2022-08-03T11:28:44;26.20;99.90
6164;DHT22;3114;48.362;10.994;2022-08-03T11:34:21;26.20;99.90
6164;DHT22;3114;48.362;10.994;2022-08-03T11:37:20;26.30;99.90
6164;DHT22;3114;48.362;10.994;2022-08-03T11:39:51;26.30;99.90
6164;DHT22;3114;48.362;10.994;2022-08-03T11:42:38;26.40;99.90
6164;DHT22;3114;48.362;10.994;2022-08-03T11:45:08;26.40;99.90
6164;DHT22;3114;48.362;10.994;2022-08-03T11:47:37;26.40;99.90
6164;DHT22;3114;48.362;10.994;2022-08-03T11:50:05;26.80;99.90
6164;DHT22;3114;48.362;10.994;2022-08-03T11:55:09;26.60;99.90
6164;DHT22;3114;48.362;10.994;2022-08-03T11:57:36;26.50;99.90
6164;DHT22;3114;48.362;10.994;2022-08-03T12:00:22;26.50;99.90
6164;DHT22;3114;48.362;10.994;2022-08-03T12:03:05;26.50;99.90
6164;DHT22;3114;48.362;10.994;2022-08-03T12:05:45;26.50;99.90
6164;DHT22;3114;48.362;10.994;2022-08-03T12:08:15;26.50;99.90
6164;DHT22;3114;48.362;10.994;2022-08-03T12:10:47;26.50;99.90
6164;DHT22;3114;48.362;10.994;2022-08-03T12:13:15;26.60;99.90
6164;DHT22;3114;48.362;10.994;2022-08-03T12:15:52;26.70;99.90
6164;DHT22;3114;48.362;10.994;2022-08-03T12:18:20;26.70;99.90
6164;DHT22;3114;48.362;10.994;2022-08-03T12:20:51;26.80;99.90
6164;DHT22;3114;48.362;10.994;2022-08-03T12:23:19;26.70;99.90
6164;DHT22;3114;48.362;10.994;2022-08-03T12:28:16;26.80;99.90
6164;DHT22;3114;48.362;10.994;2022-08-03T12:30:45;26.90;99.90
6164;DHT22;3114;48.362;10.994;2022-08-03T12:33:19;26.90;99.90
6164;DHT22;3114;48.362;10.994;2022-08-03T12:35:48;26.90;99.90
6164;DHT22;3114;48.362;10.994;2022-08-03T12:38:19;26.90;99.90
6164;DHT22;3114;48.362;10.994;2022-08-03T12:40:55;26.80;99.90
6164;DHT22;3114;48.362;10.994;2022-08-03T12:43:22;26.80;99.90
6164;DHT22;3114;48.362;10.994;2022-08-03T12:45:49;26.80;99.90
6164;DHT22;3114;48.362;10.994;2022-08-03T12:48:17;26.90;99.90
6164;DHT22;3114;48.362;10.994;2022-08-03T12:50:44;27.00;99.90
6164;DHT22;3114;48.362;10.994;2022-08-03T12:53:11;27.20;99.90
6164;DHT22;3114;48.362;10.994;2022-08-03T12:55:38;27.40;99.90
6164;DHT22;3114;48.362;10.994;2022-08-03T12:58:06;27.30;99.90
6164;DHT22;3114;48.362;10.994;2022-08-03T13:00:35;27.20;99.90
6164;DHT22;3114;48.362;10.994;2022-08-03T13:03:06;27.10;99.90
6164;DHT22;3114;48.362;10.994;2022-08-03T13:05:43;27.00;99.90
6164;DHT22;3114;48.362;10.994;2022-08-03T13:08:17;27.00;99.90
6164;DHT22;3114;48.362;10.994;2022-08-03T13:10:45;27.30;99.90
6164;DHT22;3114;48.362;10.994;2022-08-03T13:13:12;27.20;99.90
6164;DHT22;3114;48.362;10.994;2022-08-03T13:15:39;27.20;99.90
6164;DHT22;3114;48.362;10.994;2022-08-03T13:18:06;27.20;99.90
6164;DHT22;3114;48.362;10.994;2022-08-03T13:20:35;27.20;99.90
6164;DHT22;3114;48.362;10.994;2022-08-03T13:23:03;27.10;99.90
6164;DHT22;3114;48.362;10.994;2022-08-03T13:25:30;27.10;99.90
6164;DHT22;3114;48.362;10.994;2022-08-03T13:27:56;27.10;99.90
6164;DHT22;3114;48.362;10.994;2022-08-03T13:30:23;27.10;99.90
6164;DHT22;3114;48.362;10.994;2022-08-03T13:32:50;27.20;99.90
6164;DHT22;3114;48.362;10.994;2022-08-03T13:35:17;27.20;99.90
6164;DHT22;3114;48.362;10.994;2022-08-03T13:37:44;27.20;99.90
6164;DHT22;3114;48.362;10.994;2022-08-03T13:40:12;27.20;99.90
6164;DHT22;3114;48.362;10.994;2022-08-03T13:42:39;27.30;99.90
6164;DHT22;3114;48.362;10.994;2022-08-03T13:45:06;27.30;99.90
6164;DHT22;3114;48.362;10.994;2022-08-03T13:47:34;27.40;99.90
6164;DHT22;3114;48.362;10.994;2022-08-03T13:50:02;27.50;99.90
6164;DHT22;3114;48.362;10.994;2022-08-03T13:52:31;27.60;99.90
6164;DHT22;3114;48.362;10.994;2022-08-03T13:54:57;27.80;99.90
6164;DHT22;3114;48.362;10.994;2022-08-03T13:57:28;27.80;99.90
6164;DHT22;3114;48.362;10.994;2022-08-03T13:59:55;27.90;99.90
6164;DHT22;3114;48.362;10.994;2022-08-03T14:02:22;27.80;99.90
6164;DHT22;3114;48.362;10.994;2022-08-03T14:04:48;27.90;99.90
6164;DHT22;3114;48.362;10.994;2022-08-03T14:07:15;32.00;99.90
6164;DHT22;3114;48.362;10.994;2022-08-03T14:09:42;37.60;99.90
6164;DHT22;3114;48.362;10.994;2022-08-03T14:12:09;41.70;99.90
6164;DHT22;3114;48.362;10.994;2022-08-03T14:14:37;44.70;99.90
6164;DHT22;3114;48.362;10.994;2022-08-03T14:17:04;46.90;99.90
6164;DHT22;3114;48.362;10.994;2022-08-03T14:19:31;48.20;99.90
6164;DHT22;3114;48.362;10.994;2022-08-03T14:21:58;48.80;99.90
6164;DHT22;3114;48.362;10.994;2022-08-03T14:24:25;49.30;99.90
6164;DHT22;3114;48.362;10.994;2022-08-03T14:26:52;49.30;99.90
6164;DHT22;3114;48.362;10.994;2022-08-03T14:29:19;48.60;99.90
6164;DHT22;3114;48.362;10.994;2022-08-03T14:31:47;47.50;99.90
6164;DHT22;3114;48.362;10.994;2022-08-03T14:34:14;44.90;99.90
6164;DHT22;3114;48.362;10.994;2022-08-03T14:36:41;42.50;99.90
6164;DHT22;3114;48.362;10.994;2022-08-03T14:39:07;40.20;99.90
6164;DHT22;3114;48.362;10.994;2022-08-03T14:41:34;38.30;99.90
6164;DHT22;3114;48.362;10.994;2022-08-03T14:44:01;38.40;99.90
6164;DHT22;3114;48.362;10.994;2022-08-03T14:46:29;38.80;99.90
6164;DHT22;3114;48.362;10.994;2022-08-03T14:48:58;38.70;99.90
6164;DHT22;3114;48.362;10.994;2022-08-03T14:51:24;38.70;99.90
6164;DHT22;3114;48.362;10.994;2022-08-03T14:53:56;38.60;99.90
6164;DHT22;3114;48.362;10.994;2022-08-03T14:56:23;38.70;99.90
6164;DHT22;3114;48.362;10.994;2022-08-03T14:58:50;38.40;99.90
6164;DHT22;3114;48.362;10.994;2022-08-03T15:01:17;38.00;99.90
6164;DHT22;3114;48.362;10.994;2022-08-03T15:03:44;37.50;99.90
6164;DHT22;3114;48.362;10.994;2022-08-03T15:06:13;37.60;99.90
6164;DHT22;3114;48.362;10.994;2022-08-03T15:08:40;37.60;99.90
6164;DHT22;3114;48.362;10.994;2022-08-03T15:11:07;37.60;99.90
6164;DHT22;3114;48.362;10.994;2022-08-03T15:13:34;37.60;99.90
6164;DHT22;3114;48.362;10.994;2022-08-03T15:16:01;37.30;99.90
6164;DHT22;3114;48.362;10.994;2022-08-03T15:18:28;37.20;99.90
6164;DHT22;3114;48.362;10.994;2022-08-03T15:20:55;37.30;99.90
6164;DHT22;3114;48.362;10.994;2022-08-03T15:23:23;37.20;99.90
6164;DHT22;3114;48.362;10.994;2022-08-03T15:25:51;36.50;99.90
6164;DHT22;3114;48.362;10.994;2022-08-03T15:28:18;36.60;99.90
6164;DHT22;3114;48.362;10.994;2022-08-03T15:33:12;36.80;99.90
6164;DHT22;3114;48.362;10.994;2022-08-03T15:35:38;36.60;99.90
6164;DHT22;3114;48.362;10.994;2022-08-03T15:38:06;36.60;99.90
6164;DHT22;3114;48.362;10.994;2022-08-03T15:40:34;36.60;99.90
6164;DHT22;3114;48.362;10.994;2022-08-03T15:43:01;36.40;99.90
6164;DHT22;3114;48.362;10.994;2022-08-03T15:45:28;36.30;99.90
6164;DHT22;3114;48.362;10.994;2022-08-03T15:47:55;36.20;99.90
6164;DHT22;3114;48.362;10.994;2022-08-03T15:50:21;36.10;99.90
6164;DHT22;3114;48.362;10.994;2022-08-03T15:52:48;36.00;99.90
6164;DHT22;3114;48.362;10.994;2022-08-03T15:55:15;35.50;99.90
6164;DHT22;3114;48.362;10.994;2022-08-03T15:57:43;34.90;99.90
6164;DHT22;3114;48.362;10.994;2022-08-03T16:00:11;34.80;99.90
6164;DHT22;3114;48.362;10.994;2022-08-03T16:02:38;34.80;99.90
6164;DHT22;3114;48.362;10.994;2022-08-03T16:05:06;34.80;99.90
6164;DHT22;3114;48.362;10.994;2022-08-03T16:07:33;34.80;99.90
6164;DHT22;3114;48.362;10.994;2022-08-03T16:10:11;34.60;99.90